sensor_id;sensor_type;location;lat;lon;timestamp;pressure;altitude;pressure_sealevel;temperature;humidity
7026;BME280;3554;42.132;24.786;2023-06-22T00:00:49;99509.66;;;24.08;100.00
7026;BME280;3554;42.132;24.786;2023-06-22T00:03:17;99507.56;;;24.02;100.00
7026;BME280;3554;42.132;24.786;2023-06-22T00:05:44;99511.06;;;24.12;100.00
7026;BME280;3554;42.132;24.786;2023-06-22T00:08:12;99512.50;;;24.06;100.00
7026;BME280;3554;42.132;24.786;2023-06-22T00:10:39;99509.50;;;24.19;100.00
7026;BME280;3554;42.132;24.786;2023-06-22T00:13:06;99520.78;;;24.22;100.00
7026;BME280;3554;42.132;24.786;2023-06-22T00:15:35;99518.81;;;24.15;100.00
7026;BME280;3554;42.132;24.786;2023-06-22T00:18:03;99518.09;;;24.13;100.00
7026;BME280;3554;42.132;24.786;2023-06-22T00:20:29;99514.16;;;24.17;100.00
7026;BME280;3554;42.132;24.786;2023-06-22T00:22:58;99520.63;;;24.14;100.00
7026;BME280;3554;42.132;24.786;2023-06-22T00:25:25;99527.41;;;24.09;100.00
7026;BME280;3554;42.132;24.786;2023-06-22T00:27:52;99521.78;;;24.02;100.00
7026;BME280;3554;42.132;24.786;2023-06-22T00:30:19;99529.06;;;23.91;100.00
7026;BME280;3554;42.132;24.786;2023-06-22T00:32:47;99520.66;;;23.76;100.00
7026;BME280;3554;42.132;24.786;2023-06-22T00:35:14;99536.41;;;23.70;100.00
7026;BME280;3554;42.132;24.786;2023-06-22T00:37:41;99541.34;;;23.65;100.00
7026;BME280;3554;42.132;24.786;2023-06-22T00:40:09;99523.75;;;23.53;100.00
7026;BME280;3554;42.132;24.786;2023-06-22T00:42:37;99531.19;;;23.49;100.00
7026;BME280;3554;42.132;24.786;2023-06-22T00:45:05;99542.03;;;23.48;100.00
7026;BME280;3554;42.132;24.786;2023-06-22T00:47:34;99541.44;;;23.34;100.00
7026;BME280;3554;42.132;24.786;2023-06-22T00:50:06;99542.28;;;23.35;100.00
7026;BME280;3554;42.132;24.786;2023-06-22T00:52:34;99536.63;;;23.28;100.00
7026;BME280;3554;42.132;24.786;2023-06-22T00:55:02;99541.53;;;23.23;100.00
7026;BME280;3554;42.132;24.786;2023-06-22T00:57:29;99547.88;;;23.22;100.00
7026;BME280;3554;42.132;24.786;2023-06-22T00:59:56;99538.72;;;23.15;100.00
7026;BME280;3554;42.132;24.786;2023-06-22T01:02:23;99529.56;;;23.08;100.00
7026;BME280;3554;42.132;24.786;2023-06-22T01:04:50;99543.88;;;23.07;100.00
7026;BME280;3554;42.132;24.786;2023-06-22T01:07:23;99546.69;;;23.06;100.00
7026;BME280;3554;42.132;24.786;2023-06-22T01:09:57;99550.22;;;23.06;100.00
7026;BME280;3554;42.132;24.786;2023-06-22T01:12:30;99544.72;;;23.08;100.00
7026;BME280;3554;42.132;24.786;2023-06-22T01:15:05;99535.88;;;23.07;100.00
7026;BME280;3554;42.132;24.786;2023-06-22T01:17:35;99547.53;;;23.06;100.00
7026;BME280;3554;42.132;24.786;2023-06-22T01:20:03;99554.50;;;22.88;100.00
7026;BME280;3554;42.132;24.786;2023-06-22T01:22:33;99554.50;;;22.88;100.00
7026;BME280;3554;42.132;24.786;2023-06-22T01:25:09;99554.25;;;23.01;100.00
7026;BME280;3554;42.132;24.786;2023-06-22T01:27:50;99542.03;;;22.98;100.00
7026;BME280;3554;42.132;24.786;2023-06-22T01:30:21;99543.00;;;22.97;100.00
7026;BME280;3554;42.132;24.786;2023-06-22T01:32:51;99541.44;;;22.95;100.00
7026;BME280;3554;42.132;24.786;2023-06-22T01:35:20;99546.22;;;22.91;100.00
7026;BME280;3554;42.132;24.786;2023-06-22T01:37:48;99542.81;;;22.89;100.00
7026;BME280;3554;42.132;24.786;2023-06-22T01:40:16;99546.78;;;22.85;100.00
7026;BME280;3554;42.132;24.786;2023-06-22T01:42:44;99549.69;;;22.82;100.00
7026;BME280;3554;42.132;24.786;2023-06-22T01:45:12;99544.63;;;22.79;100.00
7026;BME280;3554;42.132;24.786;2023-06-22T01:47:40;99533.38;;;22.76;100.00
7026;BME280;3554;42.132;24.786;2023-06-22T01:50:08;99538.00;;;22.74;100.00
7026;BME280;3554;42.132;24.786;2023-06-22T01:52:35;99538.72;;;22.76;100.00
7026;BME280;3554;42.132;24.786;2023-06-22T01:55:03;99541.53;;;22.74;100.00
7026;BME280;3554;42.132;24.786;2023-06-22T01:57:31;99543.19;;;22.75;100.00
7026;BME280;3554;42.132;24.786;2023-06-22T02:00:00;99525.75;;;22.62;100.00
7026;BME280;3554;42.132;24.786;2023-06-22T02:02:33;99545.84;;;22.66;100.00
7026;BME280;3554;42.132;24.786;2023-06-22T02:05:05;99540.31;;;22.58;100.00
7026;BME280;3554;42.132;24.786;2023-06-22T02:07:37;99540.69;;;22.53;100.00
7026;BME280;3554;42.132;24.786;2023-06-22T02:10:07;99499.53;;;22.25;100.00
7026;BME280;3554;42.132;24.786;2023-06-22T02:12:38;99537.59;;;22.48;100.00
7026;BME280;3554;42.132;24.786;2023-06-22T02:15:06;99536.03;;;22.46;100.00
7026;BME280;3554;42.132;24.786;2023-06-22T02:17:34;99537.13;;;22.43;100.00
7026;BME280;3554;42.132;24.786;2023-06-22T02:20:02;99544.47;;;22.51;100.00
7026;BME280;3554;42.132;24.786;2023-06-22T02:22:31;99530.81;;;22.44;100.00
7026;BME280;3554;42.132;24.786;2023-06-22T02:24:58;99545.78;;;22.56;100.00
7026;BME280;3554;42.132;24.786;2023-06-22T02:27:24;99538.28;;;22.50;100.00
7026;BME280;3554;42.132;24.786;2023-06-22T02:29:51;99555.72;;;22.54;100.00
7026;BME280;3554;42.132;24.786;2023-06-22T02:32:18;99548.75;;;22.63;100.00
7026;BME280;3554;42.132;24.786;2023-06-22T02:34:45;99561.38;;;22.61;100.00
7026;BME280;3554;42.132;24.786;2023-06-22T02:37:14;99555.84;;;22.53;100.00
7026;BME280;3554;42.132;24.786;2023-06-22T02:39:41;99554.88;;;22.54;100.00
7026;BME280;3554;42.132;24.786;2023-06-22T02:42:08;99563.00;;;22.52;100.00
7026;BME280;3554;42.132;24.786;2023-06-22T02:44:36;99565.56;;;22.33;100.00
7026;BME280;3554;42.132;24.786;2023-06-22T02:47:03;99572.22;;;22.39;100.00
7026;BME280;3554;42.132;24.786;2023-06-22T02:49:30;99569.91;;;22.34;100.00
7026;BME280;3554;42.132;24.786;2023-06-22T02:51:57;99567.78;;;22.28;100.00
7026;BME280;3554;42.132;24.786;2023-06-22T02:54:25;99571.19;;;22.30;100.00
7026;BME280;3554;42.132;24.786;2023-06-22T02:56:52;99567.38;;;22.32;100.00
7026;BME280;3554;42.132;24.786;2023-06-22T02:59:19;99569.16;;;22.22;100.00
7026;BME280;3554;42.132;24.786;2023-06-22T03:01:48;99564.78;;;22.01;100.00
7026;BME280;3554;42.132;24.786;2023-06-22T03:04:16;99570.41;;;21.98;100.00
7026;BME280;3554;42.132;24.786;2023-06-22T03:06:42;99578.06;;;22.12;100.00
7026;BME280;3554;42.132;24.786;2023-06-22T03:09:09;99580.03;;;22.10;100.00
7026;BME280;3554;42.132;24.786;2023-06-22T03:11:37;99576.50;;;22.09;100.00
7026;BME280;3554;42.132;24.786;2023-06-22T03:14:04;99585.16;;;22.02;100.00
7026;BME280;3554;42.132;24.786;2023-06-22T03:16:31;99594.56;;;22.06;100.00
7026;BME280;3554;42.132;24.786;2023-06-22T03:18:58;99589.78;;;22.20;100.00
7026;BME280;3554;42.132;24.786;2023-06-22T03:21:27;99582.50;;;22.22;100.00
7026;BME280;3554;42.132;24.786;2023-06-22T03:23:55;99582.69;;;22.51;100.00
7026;BME280;3554;42.132;24.786;2023-06-22T03:26:21;99567.50;;;22.72;100.00
7026;BME280;3554;42.132;24.786;2023-06-22T03:28:53;99572.59;;;23.15;100.00
7026;BME280;3554;42.132;24.786;2023-06-22T03:31:20;99562.69;;;23.55;100.00
7026;BME280;3554;42.132;24.786;2023-06-22T03:33:47;99559.47;;;23.61;100.00
7026;BME280;3554;42.132;24.786;2023-06-22T03:36:14;99561.16;;;23.91;100.00
7026;BME280;3554;42.132;24.786;2023-06-22T03:38:44;99570.00;;;24.39;100.00
7026;BME280;3554;42.132;24.786;2023-06-22T03:41:11;99578.53;;;24.71;100.00
7026;BME280;3554;42.132;24.786;2023-06-22T03:43:38;99571.44;;;25.16;100.00
7026;BME280;3554;42.132;24.786;2023-06-22T03:46:06;99581.75;;;25.38;100.00
7026;BME280;3554;42.132;24.786;2023-06-22T03:48:33;99579.22;;;25.64;100.00
7026;BME280;3554;42.132;24.786;2023-06-22T03:51:01;99581.28;;;25.88;100.00
7026;BME280;3554;42.132;24.786;2023-06-22T03:53:28;99583.88;;;25.97;100.00
7026;BME280;3554;42.132;24.786;2023-06-22T03:55:55;99587.94;;;26.01;100.00
7026;BME280;3554;42.132;24.786;2023-06-22T03:58:22;99596.16;;;26.17;100.00
7026;BME280;3554;42.132;24.786;2023-06-22T04:00:50;99588.78;;;26.37;100.00
7026;BME280;3554;42.132;24.786;2023-06-22T04:03:19;99578.22;;;26.43;100.00
7026;BME280;3554;42.132;24.786;2023-06-22T04:05:46;99584.19;;;26.55;100.00
7026;BME280;3554;42.132;24.786;2023-06-22T04:08:13;99585.50;;;26.51;100.00
7026;BME280;3554;42.132;24.786;2023-06-22T04:10:40;99576.13;;;26.73;100.00
7026;BME280;3554;42.132;24.786;2023-06-22T04:13:07;99587.97;;;26.88;100.00
7026;BME280;3554;42.132;24.786;2023-06-22T04:15:34;99581.41;;;26.90;100.00
7026;BME280;3554;42.132;24.786;2023-06-22T04:18:00;99567.00;;;26.91;100.00
7026;BME280;3554;42.132;24.786;2023-06-22T04:20:29;99592.56;;;27.03;100.00
7026;BME280;3554;42.132;24.786;2023-06-22T04:22:56;99591.25;;;27.07;100.00
7026;BME280;3554;42.132;24.786;2023-06-22T04:25:23;99592.81;;;27.26;100.00
7026;BME280;3554;42.132;24.786;2023-06-22T04:27:50;99597.44;;;27.33;100.00
7026;BME280;3554;42.132;24.786;2023-06-22T04:30:17;99595.31;;;27.53;100.00
7026;BME280;3554;42.132;24.786;2023-06-22T04:32:44;99584.09;;;27.82;100.00
7026;BME280;3554;42.132;24.786;2023-06-22T04:35:22;99590.03;;;28.01;100.00
7026;BME280;3554;42.132;24.786;2023-06-22T04:37:50;99591.91;;;27.93;100.00
7026;BME280;3554;42.132;24.786;2023-06-22T04:40:21;99559.56;;;27.77;100.00
7026;BME280;3554;42.132;24.786;2023-06-22T04:42:48;99601.81;;;28.08;100.00
7026;BME280;3554;42.132;24.786;2023-06-22T04:45:19;99590.88;;;28.10;100.00
7026;BME280;3554;42.132;24.786;2023-06-22T04:47:46;99605.88;;;28.28;100.00
7026;BME280;3554;42.132;24.786;2023-06-22T04:50:13;99587.84;;;28.45;100.00
7026;BME280;3554;42.132;24.786;2023-06-22T04:52:40;99606.34;;;28.72;100.00
7026;BME280;3554;42.132;24.786;2023-06-22T04:55:08;99581.78;;;28.35;100.00
7026;BME280;3554;42.132;24.786;2023-06-22T04:57:35;99608.19;;;28.72;100.00
7026;BME280;3554;42.132;24.786;2023-06-22T05:00:06;99584.94;;;28.79;100.00
7026;BME280;3554;42.132;24.786;2023-06-22T05:02:38;99596.88;;;28.84;100.00
7026;BME280;3554;42.132;24.786;2023-06-22T05:05:05;99583.63;;;28.75;100.00
7026;BME280;3554;42.132;24.786;2023-06-22T05:07:33;99586.31;;;28.67;100.00
7026;BME280;3554;42.132;24.786;2023-06-22T05:10:00;99590.22;;;28.64;100.00
7026;BME280;3554;42.132;24.786;2023-06-22T05:12:29;99599.75;;;28.91;100.00
7026;BME280;3554;42.132;24.786;2023-06-22T05:14:56;99597.31;;;29.20;100.00
7026;BME280;3554;42.132;24.786;2023-06-22T05:17:23;99606.16;;;29.36;100.00
7026;BME280;3554;42.132;24.786;2023-06-22T05:19:50;99594.31;;;29.45;100.00
7026;BME280;3554;42.132;24.786;2023-06-22T05:22:17;99598.38;;;29.41;100.00
7026;BME280;3554;42.132;24.786;2023-06-22T05:24:44;99599.25;;;29.34;100.00
7026;BME280;3554;42.132;24.786;2023-06-22T05:27:11;99589.25;;;29.42;100.00
7026;BME280;3554;42.132;24.786;2023-06-22T05:29:39;99555.91;;;28.97;100.00
7026;BME280;3554;42.132;24.786;2023-06-22T05:32:06;99599.00;;;29.51;100.00
7026;BME280;3554;42.132;24.786;2023-06-22T05:34:33;99600.78;;;29.67;100.00
7026;BME280;3554;42.132;24.786;2023-06-22T05:37:02;99610.66;;;29.83;100.00
7026;BME280;3554;42.132;24.786;2023-06-22T05:39:29;99605.66;;;29.72;100.00
7026;BME280;3554;42.132;24.786;2023-06-22T05:41:55;99605.16;;;29.37;100.00
7026;BME280;3554;42.132;24.786;2023-06-22T05:44:22;99605.38;;;29.59;100.00
7026;BME280;3554;42.132;24.786;2023-06-22T05:46:50;99601.41;;;29.77;100.00
7026;BME280;3554;42.132;24.786;2023-06-22T05:49:17;99602.34;;;30.15;100.00
7026;BME280;3554;42.132;24.786;2023-06-22T05:51:44;99601.31;;;29.93;100.00
7026;BME280;3554;42.132;24.786;2023-06-22T05:54:11;99606.94;;;29.14;100.00
7026;BME280;3554;42.132;24.786;2023-06-22T05:56:38;99592.78;;;29.04;100.00
7026;BME280;3554;42.132;24.786;2023-06-22T05:59:05;99594.50;;;28.89;100.00
7026;BME280;3554;42.132;24.786;2023-06-22T06:01:32;99596.13;;;29.22;100.00
7026;BME280;3554;42.132;24.786;2023-06-22T06:04:03;99604.13;;;29.77;100.00
7026;BME280;3554;42.132;24.786;2023-06-22T06:06:30;99601.56;;;30.06;100.00
7026;BME280;3554;42.132;24.786;2023-06-22T06:08:57;99595.00;;;30.61;100.00
7026;BME280;3554;42.132;24.786;2023-06-22T06:11:24;99606.97;;;30.66;100.00
7026;BME280;3554;42.132;24.786;2023-06-22T06:13:51;99617.47;;;30.46;100.00
7026;BME280;3554;42.132;24.786;2023-06-22T06:16:18;99600.25;;;30.77;100.00
7026;BME280;3554;42.132;24.786;2023-06-22T06:18:45;99602.88;;;30.70;100.00
7026;BME280;3554;42.132;24.786;2023-06-22T06:21:15;99597.66;;;30.69;100.00
7026;BME280;3554;42.132;24.786;2023-06-22T06:23:42;99592.19;;;31.06;100.00
7026;BME280;3554;42.132;24.786;2023-06-22T06:26:09;99602.25;;;31.41;100.00
7026;BME280;3554;42.132;24.786;2023-06-22T06:28:35;99602.53;;;31.46;100.00
7026;BME280;3554;42.132;24.786;2023-06-22T06:31:02;99601.06;;;31.43;100.00
7026;BME280;3554;42.132;24.786;2023-06-22T06:33:32;99599.53;;;31.56;100.00
7026;BME280;3554;42.132;24.786;2023-06-22T06:35:59;99594.91;;;31.71;100.00
7026;BME280;3554;42.132;24.786;2023-06-22T06:38:30;99553.66;;;31.18;100.00
7026;BME280;3554;42.132;24.786;2023-06-22T06:40:57;99600.75;;;31.53;100.00
7026;BME280;3554;42.132;24.786;2023-06-22T06:43:24;99600.19;;;31.14;100.00
7026;BME280;3554;42.132;24.786;2023-06-22T06:45:51;99588.38;;;31.15;100.00
7026;BME280;3554;42.132;24.786;2023-06-22T06:48:18;99605.34;;;31.38;100.00
7026;BME280;3554;42.132;24.786;2023-06-22T06:50:45;99596.44;;;31.59;100.00
7026;BME280;3554;42.132;24.786;2023-06-22T06:53:11;99580.91;;;31.67;100.00
7026;BME280;3554;42.132;24.786;2023-06-22T06:55:40;99589.16;;;31.95;100.00
7026;BME280;3554;42.132;24.786;2023-06-22T06:58:06;99602.91;;;31.58;100.00
7026;BME280;3554;42.132;24.786;2023-06-22T07:00:35;99596.69;;;31.64;100.00
7026;BME280;3554;42.132;24.786;2023-06-22T07:03:02;99586.13;;;31.69;100.00
7026;BME280;3554;42.132;24.786;2023-06-22T07:05:29;99589.78;;;31.76;100.00
7026;BME280;3554;42.132;24.786;2023-06-22T07:07:56;99591.09;;;32.01;100.00
7026;BME280;3554;42.132;24.786;2023-06-22T07:10:23;99594.31;;;32.32;100.00
7026;BME280;3554;42.132;24.786;2023-06-22T07:12:51;99585.31;;;32.52;99.64
7026;BME280;3554;42.132;24.786;2023-06-22T07:15:18;99595.78;;;32.56;98.18
7026;BME280;3554;42.132;24.786;2023-06-22T07:17:45;99592.63;;;32.10;97.41
7026;BME280;3554;42.132;24.786;2023-06-22T07:20:12;99594.84;;;32.42;96.71
7026;BME280;3554;42.132;24.786;2023-06-22T07:22:39;99586.19;;;32.32;96.11
7026;BME280;3554;42.132;24.786;2023-06-22T07:25:07;99599.59;;;32.19;99.94
7026;BME280;3554;42.132;24.786;2023-06-22T07:27:36;99594.25;;;32.04;100.00
7026;BME280;3554;42.132;24.786;2023-06-22T07:30:07;99602.91;;;31.93;99.34
7026;BME280;3554;42.132;24.786;2023-06-22T07:32:34;99598.44;;;32.07;100.00
7026;BME280;3554;42.132;24.786;2023-06-22T07:35:01;99604.63;;;32.01;100.00
7026;BME280;3554;42.132;24.786;2023-06-22T07:37:29;99590.41;;;31.78;100.00
7026;BME280;3554;42.132;24.786;2023-06-22T07:39:56;99609.97;;;31.59;100.00
7026;BME280;3554;42.132;24.786;2023-06-22T07:42:24;99599.63;;;31.47;100.00
7026;BME280;3554;42.132;24.786;2023-06-22T07:44:51;99604.31;;;31.39;100.00
7026;BME280;3554;42.132;24.786;2023-06-22T07:47:19;99605.00;;;31.62;100.00
7026;BME280;3554;42.132;24.786;2023-06-22T07:49:50;99607.16;;;31.67;100.00
7026;BME280;3554;42.132;24.786;2023-06-22T07:52:17;99602.56;;;32.24;100.00
7026;BME280;3554;42.132;24.786;2023-06-22T07:54:44;99602.53;;;32.66;98.32
7026;BME280;3554;42.132;24.786;2023-06-22T07:57:10;99603.44;;;32.73;92.79
7026;BME280;3554;42.132;24.786;2023-06-22T07:59:37;99607.03;;;32.80;90.94
7026;BME280;3554;42.132;24.786;2023-06-22T08:02:05;99600.53;;;32.81;85.61
7026;BME280;3554;42.132;24.786;2023-06-22T08:04:35;99598.84;;;32.74;88.95
7026;BME280;3554;42.132;24.786;2023-06-22T08:07:02;99598.38;;;32.70;86.03
7026;BME280;3554;42.132;24.786;2023-06-22T08:09:30;99605.31;;;32.45;84.58
7026;BME280;3554;42.132;24.786;2023-06-22T08:11:58;99592.34;;;32.68;88.42
7026;BME280;3554;42.132;24.786;2023-06-22T08:14:25;99589.03;;;32.73;87.17
7026;BME280;3554;42.132;24.786;2023-06-22T08:16:53;99586.16;;;32.53;84.33
7026;BME280;3554;42.132;24.786;2023-06-22T08:19:19;99588.97;;;32.94;82.44
7026;BME280;3554;42.132;24.786;2023-06-22T08:21:48;99595.50;;;33.06;81.13
7026;BME280;3554;42.132;24.786;2023-06-22T08:24:14;99593.09;;;33.17;79.53
7026;BME280;3554;42.132;24.786;2023-06-22T08:26:41;99586.00;;;33.23;78.02
7026;BME280;3554;42.132;24.786;2023-06-22T08:29:08;99585.72;;;33.11;77.30
7026;BME280;3554;42.132;24.786;2023-06-22T08:31:36;99594.25;;;33.02;82.00
7026;BME280;3554;42.132;24.786;2023-06-22T08:34:02;99587.34;;;32.99;77.88
7026;BME280;3554;42.132;24.786;2023-06-22T08:36:29;99583.47;;;33.15;77.26
7026;BME280;3554;42.132;24.786;2023-06-22T08:38:59;99577.03;;;33.22;77.65
7026;BME280;3554;42.132;24.786;2023-06-22T08:41:28;99580.09;;;33.13;67.73
7026;BME280;3554;42.132;24.786;2023-06-22T08:43:55;99573.19;;;32.76;81.46
7026;BME280;3554;42.132;24.786;2023-06-22T08:46:22;99574.94;;;33.24;78.81
7026;BME280;3554;42.132;24.786;2023-06-22T08:48:55;99581.25;;;33.38;67.54
7026;BME280;3554;42.132;24.786;2023-06-22T08:51:22;99575.72;;;33.52;74.13
7026;BME280;3554;42.132;24.786;2023-06-22T08:53:49;99575.94;;;33.58;72.83
7026;BME280;3554;42.132;24.786;2023-06-22T08:56:17;99579.13;;;33.74;64.48
7026;BME280;3554;42.132;24.786;2023-06-22T08:58:44;99564.88;;;33.12;64.06
7026;BME280;3554;42.132;24.786;2023-06-22T09:01:11;99580.50;;;32.48;73.56
7026;BME280;3554;42.132;24.786;2023-06-22T09:03:38;99575.59;;;32.92;75.33
7026;BME280;3554;42.132;24.786;2023-06-22T09:06:05;99570.81;;;33.35;67.94
7026;BME280;3554;42.132;24.786;2023-06-22T09:08:32;99582.34;;;33.43;62.81
7026;BME280;3554;42.132;24.786;2023-06-22T09:10:58;99576.19;;;33.69;62.12
7026;BME280;3554;42.132;24.786;2023-06-22T09:13:30;99578.28;;;33.74;61.91
7026;BME280;3554;42.132;24.786;2023-06-22T09:15:57;99566.47;;;33.40;58.77
7026;BME280;3554;42.132;24.786;2023-06-22T09:18:24;99574.19;;;33.43;60.84
7026;BME280;3554;42.132;24.786;2023-06-22T09:20:51;99575.78;;;33.72;67.36
7026;BME280;3554;42.132;24.786;2023-06-22T09:23:17;99564.56;;;33.95;70.42
7026;BME280;3554;42.132;24.786;2023-06-22T09:25:44;99564.56;;;33.95;65.49
7026;BME280;3554;42.132;24.786;2023-06-22T09:28:13;99569.31;;;33.73;63.06
7026;BME280;3554;42.132;24.786;2023-06-22T09:30:42;99561.03;;;33.40;65.40
7026;BME280;3554;42.132;24.786;2023-06-22T09:33:10;99563.88;;;33.19;65.85
7026;BME280;3554;42.132;24.786;2023-06-22T09:35:36;99573.44;;;33.15;65.40
7026;BME280;3554;42.132;24.786;2023-06-22T09:38:04;99559.41;;;33.52;68.76
7026;BME280;3554;42.132;24.786;2023-06-22T09:40:31;99554.06;;;33.85;65.41
7026;BME280;3554;42.132;24.786;2023-06-22T09:43:00;99551.75;;;33.63;66.05
7026;BME280;3554;42.132;24.786;2023-06-22T09:45:27;99555.19;;;34.17;65.82
7026;BME280;3554;42.132;24.786;2023-06-22T09:47:55;99558.94;;;34.03;63.32
7026;BME280;3554;42.132;24.786;2023-06-22T09:50:22;99561.84;;;33.95;53.02
7026;BME280;3554;42.132;24.786;2023-06-22T09:52:49;99523.75;;;33.62;56.63
7026;BME280;3554;42.132;24.786;2023-06-22T09:55:20;99556.13;;;33.64;55.21
7026;BME280;3554;42.132;24.786;2023-06-22T09:57:46;99538.53;;;33.46;56.77
7026;BME280;3554;42.132;24.786;2023-06-22T10:00:15;99549.81;;;33.50;56.63
7026;BME280;3554;42.132;24.786;2023-06-22T10:02:42;99546.91;;;33.51;57.73
7026;BME280;3554;42.132;24.786;2023-06-22T10:05:10;99551.09;;;33.67;57.04
7026;BME280;3554;42.132;24.786;2023-06-22T10:07:37;99547.38;;;33.81;55.09
7026;BME280;3554;42.132;24.786;2023-06-22T10:10:08;99534.38;;;33.64;68.67
7026;BME280;3554;42.132;24.786;2023-06-22T10:12:35;99553.19;;;33.65;58.15
7026;BME280;3554;42.132;24.786;2023-06-22T10:15:03;99516.34;;;33.43;62.05
7026;BME280;3554;42.132;24.786;2023-06-22T10:17:29;99542.28;;;33.45;58.55
7026;BME280;3554;42.132;24.786;2023-06-22T10:19:56;99545.88;;;33.59;59.04
7026;BME280;3554;42.132;24.786;2023-06-22T10:22:24;99541.69;;;33.63;59.25
7026;BME280;3554;42.132;24.786;2023-06-22T10:24:51;99541.31;;;33.79;58.29
7026;BME280;3554;42.132;24.786;2023-06-22T10:27:18;99530.25;;;33.94;59.11
7026;BME280;3554;42.132;24.786;2023-06-22T10:29:45;99536.69;;;33.67;58.17
7026;BME280;3554;42.132;24.786;2023-06-22T10:32:12;99528.31;;;33.68;56.80
7026;BME280;3554;42.132;24.786;2023-06-22T10:34:39;99526.28;;;33.77;60.10
7026;BME280;3554;42.132;24.786;2023-06-22T10:37:06;99531.06;;;33.81;59.73
7026;BME280;3554;42.132;24.786;2023-06-22T10:39:34;99525.50;;;34.09;61.68
7026;BME280;3554;42.132;24.786;2023-06-22T10:42:00;99517.66;;;33.60;54.87
7026;BME280;3554;42.132;24.786;2023-06-22T10:44:27;99511.44;;;33.92;59.66
7026;BME280;3554;42.132;24.786;2023-06-22T10:46:54;99512.09;;;34.40;54.72
7026;BME280;3554;42.132;24.786;2023-06-22T10:49:21;99516.50;;;34.28;50.52
7026;BME280;3554;42.132;24.786;2023-06-22T10:51:48;99500.63;;;34.44;51.49
7026;BME280;3554;42.132;24.786;2023-06-22T10:54:15;99504.78;;;33.95;57.62
7026;BME280;3554;42.132;24.786;2023-06-22T10:56:44;99500.94;;;33.63;64.36
7026;BME280;3554;42.132;24.786;2023-06-22T10:59:11;99481.81;;;33.17;65.07
7026;BME280;3554;42.132;24.786;2023-06-22T11:01:38;99482.91;;;32.89;68.81
7026;BME280;3554;42.132;24.786;2023-06-22T11:04:05;99489.44;;;32.94;69.31
7026;BME280;3554;42.132;24.786;2023-06-22T11:06:32;99477.97;;;32.99;70.06
7026;BME280;3554;42.132;24.786;2023-06-22T11:08:58;99492.31;;;33.33;66.61
7026;BME280;3554;42.132;24.786;2023-06-22T11:11:25;99485.47;;;33.50;57.96
7026;BME280;3554;42.132;24.786;2023-06-22T11:13:54;99496.75;;;33.54;61.48
7026;BME280;3554;42.132;24.786;2023-06-22T11:16:20;99489.69;;;33.79;58.33
7026;BME280;3554;42.132;24.786;2023-06-22T11:18:47;99489.03;;;33.51;60.84
7026;BME280;3554;42.132;24.786;2023-06-22T11:21:14;99456.69;;;33.63;59.33
7026;BME280;3554;42.132;24.786;2023-06-22T11:23:41;99491.81;;;34.16;56.04
7026;BME280;3554;42.132;24.786;2023-06-22T11:26:08;99483.63;;;34.36;52.90
7026;BME280;3554;42.132;24.786;2023-06-22T11:28:35;99480.50;;;34.52;54.16
7026;BME280;3554;42.132;24.786;2023-06-22T11:31:03;99485.75;;;34.40;53.18
7026;BME280;3554;42.132;24.786;2023-06-22T11:33:32;99483.47;;;34.44;52.84
7026;BME280;3554;42.132;24.786;2023-06-22T11:35:59;99483.00;;;34.34;52.90
7026;BME280;3554;42.132;24.786;2023-06-22T11:38:26;99484.28;;;33.99;58.16
7026;BME280;3554;42.132;24.786;2023-06-22T11:40:53;99485.97;;;34.39;58.21
7026;BME280;3554;42.132;24.786;2023-06-22T11:43:20;99489.91;;;34.43;55.98
7026;BME280;3554;42.132;24.786;2023-06-22T11:45:46;99502.28;;;34.06;54.15
7026;BME280;3554;42.132;24.786;2023-06-22T11:48:15;99475.50;;;33.90;64.40
7026;BME280;3554;42.132;24.786;2023-06-22T11:50:41;99484.69;;;33.83;58.66
7026;BME280;3554;42.132;24.786;2023-06-22T11:53:08;99486.13;;;33.72;60.64
7026;BME280;3554;42.132;24.786;2023-06-22T11:55:35;99472.31;;;33.54;64.71
7026;BME280;3554;42.132;24.786;2023-06-22T11:58:02;99475.09;;;33.80;61.45
7026;BME280;3554;42.132;24.786;2023-06-22T12:00:31;99474.06;;;33.94;61.93
7026;BME280;3554;42.132;24.786;2023-06-22T12:02:57;99470.69;;;33.79;64.90
7026;BME280;3554;42.132;24.786;2023-06-22T12:05:26;99474.44;;;33.65;61.62
7026;BME280;3554;42.132;24.786;2023-06-22T12:07:53;99393.56;;;33.54;58.20
7026;BME280;3554;42.132;24.786;2023-06-22T12:10:20;99474.03;;;34.20;58.97
7026;BME280;3554;42.132;24.786;2023-06-22T12:12:47;99462.91;;;34.41;60.07
7026;BME280;3554;42.132;24.786;2023-06-22T12:15:13;99466.69;;;34.34;60.67
7026;BME280;3554;42.132;24.786;2023-06-22T12:17:40;99461.72;;;34.11;59.67
7026;BME280;3554;42.132;24.786;2023-06-22T12:20:08;99459.00;;;34.05;56.12
7026;BME280;3554;42.132;24.786;2023-06-22T12:22:36;99464.66;;;33.97;57.41
7026;BME280;3554;42.132;24.786;2023-06-22T12:25:04;99459.19;;;33.84;55.97
7026;BME280;3554;42.132;24.786;2023-06-22T12:27:31;99430.97;;;33.59;58.89
7026;BME280;3554;42.132;24.786;2023-06-22T12:29:58;99448.72;;;33.74;60.63
7026;BME280;3554;42.132;24.786;2023-06-22T12:32:25;99455.22;;;33.80;60.84
7026;BME280;3554;42.132;24.786;2023-06-22T12:34:52;99417.81;;;33.56;59.30
7026;BME280;3554;42.132;24.786;2023-06-22T12:37:19;99451.06;;;34.23;56.76
7026;BME280;3554;42.132;24.786;2023-06-22T12:39:47;99447.66;;;34.60;54.95
7026;BME280;3554;42.132;24.786;2023-06-22T12:42:14;99443.88;;;34.61;56.59
7026;BME280;3554;42.132;24.786;2023-06-22T12:44:41;99435.22;;;34.77;57.47
7026;BME280;3554;42.132;24.786;2023-06-22T12:47:09;99420.63;;;34.65;57.81
7026;BME280;3554;42.132;24.786;2023-06-22T12:49:36;99429.72;;;34.13;54.83
7026;BME280;3554;42.132;24.786;2023-06-22T12:52:08;99415.66;;;34.36;55.85
7026;BME280;3554;42.132;24.786;2023-06-22T12:54:35;99432.41;;;34.33;53.05
7026;BME280;3554;42.132;24.786;2023-06-22T12:57:04;99435.56;;;34.23;53.75
7026;BME280;3554;42.132;24.786;2023-06-22T12:59:31;99436.78;;;34.47;52.84
7026;BME280;3554;42.132;24.786;2023-06-22T13:01:58;99438.50;;;34.22;53.13
7026;BME280;3554;42.132;24.786;2023-06-22T13:04:25;99432.66;;;33.99;55.99
7026;BME280;3554;42.132;24.786;2023-06-22T13:06:51;99425.97;;;33.82;57.95